createdAt,value
2017-11-05T00:00:53.285Z,0
2017-11-05T00:01:54.702Z,0
2017-11-05T00:02:56.125Z,0
2017-11-05T00:03:57.540Z,0
2017-11-05T00:04:58.959Z,0
2017-11-05T00:06:00.374Z,0
2017-11-05T00:07:01.792Z,0
2017-11-05T00:08:03.207Z,0
2017-11-05T00:09:04.625Z,0
2017-11-05T00:10:06.041Z,0
2017-11-05T00:11:07.458Z,0
2017-11-05T00:12:08.878Z,0
2017-11-05T00:13:10.295Z,0
2017-11-05T00:14:11.713Z,0
2017-11-05T00:15:13.134Z,0
2017-11-05T00:16:14.551Z,0
2017-11-05T00:17:15.970Z,0
2017-11-05T00:18:17.387Z,0
2017-11-05T00:19:18.803Z,0
2017-11-05T00:20:20.222Z,0
2017-11-05T00:21:21.637Z,0
2017-11-05T00:22:23.055Z,0
2017-11-05T00:23:24.479Z,0
2017-11-05T00:24:25.944Z,0
2017-11-05T00:25:27.366Z,0
2017-11-05T00:26:28.783Z,0
2017-11-05T00:27:30.206Z,0
2017-11-05T00:28:31.624Z,0
2017-11-05T00:29:33.037Z,0
2017-11-05T00:30:34.465Z,0
2017-11-05T00:31:35.887Z,0
2017-11-05T00:32:37.304Z,0
2017-11-05T00:33:38.724Z,0
2017-11-05T00:34:40.139Z,0
2017-11-05T00:35:41.556Z,0
2017-11-05T00:36:42.972Z,0
2017-11-05T00:37:44.425Z,0
2017-11-05T00:38:45.841Z,0
2017-11-05T00:39:47.262Z,0
2017-11-05T00:40:48.687Z,0
2017-11-05T00:41:50.106Z,0
2017-11-05T00:42:51.526Z,0
2017-11-05T00:43:52.938Z,0
2017-11-05T00:44:54.360Z,0
2017-11-05T00:45:55.777Z,0
2017-11-05T00:46:57.280Z,0
2017-11-05T00:47:58.722Z,0
2017-11-05T00:49:00.140Z,0
2017-11-05T00:50:01.562Z,0
2017-11-05T00:51:02.976Z,0
2017-11-05T00:52:04.408Z,0
2017-11-05T00:53:05.810Z,0
2017-11-05T00:54:07.227Z,0
2017-11-05T00:55:08.641Z,0
2017-11-05T00:56:10.058Z,0
2017-11-05T00:57:11.476Z,0
2017-11-05T00:58:12.893Z,0
2017-11-05T00:59:14.308Z,0
2017-11-05T01:00:15.726Z,0
2017-11-05T01:01:17.146Z,0
2017-11-05T01:02:18.555Z,0
2017-11-05T01:03:19.973Z,0
2017-11-05T01:04:21.389Z,0
2017-11-05T01:05:22.806Z,0
2017-11-05T01:06:24.229Z,0
2017-11-05T01:07:25.656Z,0
2017-11-05T01:08:27.070Z,0
2017-11-05T01:09:28.487Z,0
2017-11-05T01:10:29.906Z,0
2017-11-05T01:11:31.326Z,0
2017-11-05T01:12:32.743Z,0
2017-11-05T01:13:34.155Z,0
2017-11-05T01:14:35.575Z,0
2017-11-05T01:15:36.989Z,0
2017-11-05T01:16:38.404Z,0
2017-11-05T01:17:39.823Z,0
2017-11-05T01:18:41.236Z,0
2017-11-05T01:19:42.653Z,0
2017-11-05T01:20:44.070Z,0
2017-11-05T01:21:45.485Z,0
2017-11-05T01:22:46.900Z,0
2017-11-05T01:23:48.318Z,0
2017-11-05T01:24:49.734Z,0
2017-11-05T01:25:51.151Z,0
2017-11-05T01:26:52.568Z,0
2017-11-05T01:27:53.988Z,0
2017-11-05T01:28:55.404Z,0
2017-11-05T01:29:56.822Z,0
2017-11-05T01:30:58.242Z,0
2017-11-05T01:31:59.655Z,0
2017-11-05T01:33:01.071Z,0
2017-11-05T01:34:02.488Z,0
2017-11-05T01:35:03.905Z,0
2017-11-05T01:36:05.325Z,0
2017-11-05T01:37:06.742Z,0
2017-11-05T01:38:08.157Z,0
2017-11-05T01:39:09.575Z,0
2017-11-05T01:40:10.989Z,0
2017-11-05T01:41:12.418Z,0
2017-11-05T01:42:13.823Z,0
2017-11-05T01:43:15.237Z,0
2017-11-05T01:44:16.654Z,0
2017-11-05T01:45:18.083Z,0
2017-11-05T01:46:19.492Z,0
2017-11-05T01:47:20.900Z,0
2017-11-05T01:48:22.315Z,0
2017-11-05T01:49:23.732Z,0
2017-11-05T01:50:25.150Z,0
2017-11-05T01:51:26.566Z,0
2017-11-05T01:52:27.985Z,0
2017-11-05T01:53:29.402Z,0
2017-11-05T01:54:30.820Z,0
2017-11-05T01:55:32.237Z,0
2017-11-05T01:56:33.652Z,0
2017-11-05T01:57:35.070Z,0
2017-11-05T01:58:36.488Z,0
2017-11-05T01:59:37.904Z,0
2017-11-05T02:00:39.323Z,0
2017-11-05T02:01:40.742Z,0
2017-11-05T02:02:42.158Z,0
2017-11-05T02:03:43.576Z,0
2017-11-05T02:04:44.989Z,0
2017-11-05T02:05:46.410Z,0
2017-11-05T02:06:47.820Z,0
2017-11-05T02:07:49.238Z,0
2017-11-05T02:08:50.650Z,0
2017-11-05T02:09:52.066Z,0
2017-11-05T02:10:53.484Z,0
2017-11-05T02:11:54.898Z,0
2017-11-05T02:12:56.309Z,0
2017-11-05T02:13:57.728Z,0
2017-11-05T02:14:59.142Z,0
2017-11-05T02:16:00.562Z,0
2017-11-05T02:17:01.978Z,0
2017-11-05T02:18:03.394Z,0
2017-11-05T02:19:04.822Z,0
2017-11-05T02:20:06.233Z,0
2017-11-05T02:21:07.649Z,0
2017-11-05T02:22:09.066Z,0
2017-11-05T02:23:10.483Z,0
2017-11-05T02:24:11.907Z,0
2017-11-05T02:25:13.311Z,0
2017-11-05T02:26:14.727Z,0
2017-11-05T02:27:16.143Z,0
2017-11-05T02:28:17.563Z,0
2017-11-05T02:29:18.974Z,0
2017-11-05T02:30:20.390Z,0
2017-11-05T02:31:21.809Z,0
2017-11-05T02:32:23.223Z,0
2017-11-05T02:33:24.636Z,0
2017-11-05T02:34:26.057Z,0
2017-11-05T02:35:27.474Z,0
2017-11-05T02:36:28.895Z,0
2017-11-05T02:37:30.305Z,0
2017-11-05T02:38:31.718Z,0
2017-11-05T02:39:33.138Z,0
2017-11-05T02:40:34.552Z,0
2017-11-05T02:41:35.969Z,0
2017-11-05T02:42:37.389Z,0
2017-11-05T02:43:38.802Z,0
2017-11-05T02:44:40.222Z,0
2017-11-05T02:45:41.641Z,0
2017-11-05T02:46:43.054Z,0
2017-11-05T02:47:44.473Z,0
2017-11-05T02:48:45.889Z,0
2017-11-05T02:49:47.303Z,0
2017-11-05T02:50:48.752Z,0
2017-11-05T02:51:50.171Z,0
2017-11-05T02:52:51.592Z,0
2017-11-05T02:53:53.003Z,0
2017-11-05T02:54:54.419Z,0
2017-11-05T02:55:55.833Z,0
2017-11-05T02:56:57.249Z,0
2017-11-05T02:57:58.691Z,0
2017-11-05T02:59:00.112Z,0
2017-11-05T03:00:01.545Z,0
2017-11-05T03:01:02.961Z,0
2017-11-05T03:02:04.382Z,0
2017-11-05T03:03:05.797Z,0
2017-11-05T03:04:07.214Z,0
2017-11-05T03:05:08.632Z,0
2017-11-05T03:06:10.047Z,0
2017-11-05T03:07:11.464Z,0
2017-11-05T03:08:12.877Z,0
2017-11-05T03:09:14.292Z,0
2017-11-05T03:10:15.710Z,0
2017-11-05T03:11:17.130Z,0
2017-11-05T03:12:18.547Z,0
2017-11-05T03:13:19.962Z,0
2017-11-05T03:14:21.379Z,0
2017-11-05T03:15:22.799Z,0
2017-11-05T03:16:24.215Z,0
2017-11-05T03:17:25.632Z,0
2017-11-05T03:18:27.051Z,0
2017-11-05T03:19:28.470Z,0
2017-11-05T03:20:29.883Z,0
2017-11-05T03:21:31.300Z,0
2017-11-05T03:22:32.718Z,0
2017-11-05T03:23:34.133Z,0
2017-11-05T03:24:35.549Z,0
2017-11-05T03:25:36.965Z,0
2017-11-05T03:26:38.382Z,0
2017-11-05T03:27:39.793Z,0
2017-11-05T03:28:41.210Z,0
2017-11-05T03:29:42.628Z,0
2017-11-05T03:30:44.046Z,0
2017-11-05T03:31:45.462Z,0
2017-11-05T03:32:46.877Z,0
2017-11-05T03:33:48.298Z,0
2017-11-05T03:34:49.715Z,0
2017-11-05T03:35:51.133Z,0
2017-11-05T03:36:52.544Z,0
2017-11-05T03:37:53.959Z,0
2017-11-05T03:38:55.375Z,0
2017-11-05T03:39:56.793Z,0
2017-11-05T03:40:58.212Z,0
2017-11-05T03:41:59.629Z,0
2017-11-05T03:43:01.046Z,0
2017-11-05T03:44:02.462Z,0
2017-11-05T03:45:03.881Z,0
2017-11-05T03:46:05.299Z,0
2017-11-05T03:47:06.715Z,0
2017-11-05T03:48:08.136Z,0
2017-11-05T03:49:09.554Z,0
2017-11-05T03:50:10.970Z,0
2017-11-05T03:51:12.487Z,0
2017-11-05T03:52:13.905Z,0
2017-11-05T03:53:15.318Z,0
2017-11-05T03:54:16.735Z,0
2017-11-05T03:55:18.149Z,0
2017-11-05T03:56:19.566Z,0
2017-11-05T03:57:21.143Z,0
2017-11-05T03:58:22.558Z,0
2017-11-05T03:59:23.974Z,0
2017-11-05T04:00:25.389Z,0
2017-11-05T04:01:26.811Z,0
2017-11-05T04:02:28.225Z,0
2017-11-05T04:03:29.642Z,0
2017-11-05T04:04:31.055Z,0
2017-11-05T04:05:32.470Z,0
2017-11-05T04:06:33.888Z,0
2017-11-05T04:07:35.302Z,0
2017-11-05T04:08:36.725Z,0
2017-11-05T04:09:38.143Z,0
2017-11-05T04:10:39.561Z,0
2017-11-05T04:11:40.976Z,0
2017-11-05T04:12:42.393Z,0
2017-11-05T04:13:43.807Z,0
2017-11-05T04:14:45.223Z,0
2017-11-05T04:15:46.643Z,0
2017-11-05T04:16:48.060Z,0
2017-11-05T04:17:49.470Z,0
2017-11-05T04:18:50.886Z,0
2017-11-05T04:19:52.302Z,0
2017-11-05T04:20:53.718Z,0
2017-11-05T04:21:55.125Z,0
2017-11-05T04:22:56.554Z,0
2017-11-05T04:23:57.971Z,0
2017-11-05T04:24:59.386Z,0
2017-11-05T04:26:00.817Z,0
2017-11-05T04:27:02.234Z,0
2017-11-05T04:28:03.716Z,0
2017-11-05T04:29:05.138Z,0
2017-11-05T04:30:06.550Z,0
2017-11-05T04:31:07.969Z,0
2017-11-05T04:32:09.383Z,0
2017-11-05T04:33:10.798Z,0
2017-11-05T04:34:12.216Z,0
2017-11-05T04:35:13.634Z,0
2017-11-05T04:36:15.050Z,0
2017-11-05T04:37:16.466Z,0
2017-11-05T04:38:17.883Z,0
2017-11-05T04:39:19.299Z,0
2017-11-05T04:40:20.717Z,0
2017-11-05T04:41:22.127Z,0
2017-11-05T04:42:23.546Z,0
2017-11-05T04:43:24.966Z,0
2017-11-05T04:44:26.388Z,0
2017-11-05T04:45:27.800Z,0
2017-11-05T04:46:29.221Z,0
2017-11-05T04:47:30.632Z,0
2017-11-05T04:48:32.045Z,0
2017-11-05T04:49:33.481Z,0
2017-11-05T04:50:34.873Z,0
2017-11-05T04:51:36.291Z,0
2017-11-05T04:52:37.711Z,0
2017-11-05T04:53:39.126Z,0
2017-11-05T04:54:40.541Z,0
2017-11-05T04:55:41.962Z,0
2017-11-05T04:56:43.379Z,0
2017-11-05T04:57:44.793Z,0
2017-11-05T04:58:46.213Z,0
2017-11-05T04:59:47.638Z,0
2017-11-05T05:00:48.997Z,0
2017-11-05T05:01:50.411Z,0
2017-11-05T05:02:51.828Z,0
2017-11-05T05:03:53.244Z,0
2017-11-05T05:04:54.666Z,0
2017-11-05T05:05:56.078Z,0
2017-11-05T05:06:57.494Z,0
2017-11-05T05:07:58.934Z,0
2017-11-05T05:09:00.352Z,0
2017-11-05T05:10:01.776Z,0
2017-11-05T05:11:03.188Z,0
2017-11-05T05:12:04.612Z,0
2017-11-05T05:13:06.020Z,0
2017-11-05T05:14:07.465Z,0
2017-11-05T05:15:08.881Z,0
2017-11-05T05:16:10.301Z,0
2017-11-05T05:17:11.720Z,0
2017-11-05T05:18:13.132Z,0
2017-11-05T05:19:14.547Z,0
2017-11-05T05:20:15.967Z,0
2017-11-05T05:21:17.382Z,0
2017-11-05T05:22:18.799Z,0
2017-11-05T05:23:20.213Z,0
2017-11-05T05:24:21.630Z,0
2017-11-05T05:25:23.044Z,0
2017-11-05T05:26:24.465Z,0
2017-11-05T05:27:25.883Z,0
2017-11-05T05:28:27.299Z,0
2017-11-05T05:29:28.708Z,0
2017-11-05T05:30:30.126Z,0
2017-11-05T05:31:31.550Z,0
2017-11-05T05:32:32.958Z,0
2017-11-05T05:33:34.377Z,0
2017-11-05T05:34:35.794Z,0
2017-11-05T05:35:37.210Z,0
2017-11-05T05:36:38.627Z,0
2017-11-05T05:37:40.041Z,0
2017-11-05T05:38:41.453Z,0
2017-11-05T05:39:42.872Z,0
2017-11-05T05:40:44.288Z,0
2017-11-05T05:41:45.706Z,0
2017-11-05T05:42:47.121Z,0
2017-11-05T05:43:48.541Z,0
2017-11-05T05:44:49.954Z,0
2017-11-05T05:45:51.376Z,0
2017-11-05T05:46:52.788Z,0
2017-11-05T05:47:54.202Z,0
2017-11-05T05:48:55.619Z,0
2017-11-05T05:49:57.034Z,0
2017-11-05T05:50:58.448Z,0
2017-11-05T05:51:59.861Z,0
2017-11-05T05:53:01.284Z,0
2017-11-05T05:54:02.707Z,0
2017-11-05T05:55:04.123Z,0
2017-11-05T05:56:05.540Z,0
2017-11-05T05:57:06.952Z,0
2017-11-05T05:58:08.368Z,0
2017-11-05T05:59:09.785Z,0
2017-11-05T06:00:11.199Z,0
2017-11-05T06:01:12.611Z,0
2017-11-05T06:02:14.087Z,0
2017-11-05T06:03:15.500Z,0
2017-11-05T06:04:16.916Z,0
2017-11-05T06:05:18.330Z,0
2017-11-05T06:06:19.746Z,0
2017-11-05T06:07:21.159Z,0
2017-11-05T06:08:22.574Z,0
2017-11-05T06:09:23.991Z,0
2017-11-05T06:10:25.409Z,0
2017-11-05T06:11:26.826Z,0
2017-11-05T06:12:28.244Z,0
2017-11-05T06:13:29.661Z,0
2017-11-05T06:14:31.080Z,0
2017-11-05T06:15:32.500Z,0
2017-11-05T06:16:33.917Z,0
2017-11-05T06:17:35.330Z,0
2017-11-05T06:18:36.745Z,0
2017-11-05T06:19:38.162Z,0
2017-11-05T06:20:39.576Z,0
2017-11-05T06:21:40.990Z,0
2017-11-05T06:22:42.405Z,0
2017-11-05T06:23:43.819Z,0
2017-11-05T06:24:45.234Z,0
2017-11-05T06:25:46.649Z,0
2017-11-05T06:26:48.064Z,0
2017-11-05T06:27:49.480Z,0
2017-11-05T06:28:50.894Z,0
2017-11-05T06:29:52.311Z,0
2017-11-05T06:30:53.744Z,0
2017-11-05T06:31:55.162Z,0
2017-11-05T06:32:56.578Z,0
2017-11-05T06:33:57.995Z,0
2017-11-05T06:34:59.442Z,0
2017-11-05T06:36:00.859Z,0
2017-11-05T06:37:02.275Z,0
2017-11-05T06:38:03.792Z,0
2017-11-05T06:39:05.203Z,0
2017-11-05T06:40:06.622Z,0
2017-11-05T06:41:08.041Z,0
2017-11-05T06:42:09.448Z,0
2017-11-05T06:43:10.865Z,0
2017-11-05T06:44:12.280Z,0
2017-11-05T06:45:13.755Z,0
2017-11-05T06:46:15.176Z,0
2017-11-05T06:47:16.585Z,0
2017-11-05T06:48:18.001Z,0
2017-11-05T06:49:19.415Z,0
2017-11-05T06:50:20.835Z,0
2017-11-05T06:51:22.245Z,0
2017-11-05T06:52:23.658Z,0
2017-11-05T06:53:25.074Z,0
2017-11-05T06:54:26.492Z,0
2017-11-05T06:55:27.910Z,0
2017-11-05T06:56:29.329Z,0
2017-11-05T06:57:30.744Z,0
2017-11-05T06:58:32.160Z,0
2017-11-05T06:59:33.575Z,0
2017-11-05T07:00:34.993Z,0
2017-11-05T07:01:36.410Z,0
2017-11-05T07:02:37.822Z,0
2017-11-05T07:03:39.245Z,0
2017-11-05T07:04:40.660Z,0
2017-11-05T07:05:42.079Z,0
2017-11-05T07:06:43.495Z,0
2017-11-05T07:07:44.915Z,0
2017-11-05T07:08:46.323Z,0
2017-11-05T07:09:47.740Z,4
2017-11-05T07:10:49.160Z,4
2017-11-05T07:11:50.572Z,4
2017-11-05T07:12:51.989Z,4
2017-11-05T07:13:53.403Z,4
2017-11-05T07:14:54.821Z,4
2017-11-05T07:15:56.251Z,4
2017-11-05T07:16:57.667Z,4
2017-11-05T07:17:59.108Z,4
2017-11-05T07:19:00.569Z,4
2017-11-05T07:20:01.993Z,4
2017-11-05T07:21:03.405Z,4
2017-11-05T07:22:04.821Z,8
2017-11-05T07:23:06.240Z,8
2017-11-05T07:24:07.660Z,4
2017-11-05T07:25:09.078Z,8
2017-11-05T07:26:10.493Z,8
2017-11-05T07:27:11.912Z,8
2017-11-05T07:28:13.328Z,8
2017-11-05T07:29:14.747Z,8
2017-11-05T07:30:16.168Z,8
2017-11-05T07:31:17.582Z,8
2017-11-05T07:32:19.005Z,8
2017-11-05T07:33:20.419Z,8
2017-11-05T07:34:21.836Z,8
2017-11-05T07:35:23.252Z,8
2017-11-05T07:36:24.667Z,8
2017-11-05T07:37:26.086Z,8
2017-11-05T07:38:27.507Z,8
2017-11-05T07:39:28.918Z,8
2017-11-05T07:40:30.353Z,8
2017-11-05T07:41:31.753Z,8
2017-11-05T07:42:33.170Z,12
2017-11-05T07:43:34.592Z,8
2017-11-05T07:44:36.010Z,8
2017-11-05T07:45:37.431Z,12
2017-11-05T07:46:38.840Z,8
2017-11-05T07:47:40.268Z,8
2017-11-05T07:48:41.682Z,12
2017-11-05T07:49:43.098Z,12
2017-11-05T07:50:44.517Z,12
2017-11-05T07:51:45.938Z,16
2017-11-05T07:52:47.353Z,12
2017-11-05T07:53:48.778Z,12
2017-11-05T07:54:50.192Z,12
2017-11-05T07:55:51.608Z,12
2017-11-05T07:56:53.023Z,12
2017-11-05T07:57:54.442Z,12
2017-11-05T07:58:55.865Z,16
2017-11-05T07:59:57.287Z,16
2017-11-05T08:00:58.708Z,16
2017-11-05T08:02:00.122Z,16
2017-11-05T08:03:01.546Z,12
2017-11-05T08:04:02.960Z,12
2017-11-05T08:05:04.379Z,12
2017-11-05T08:06:05.800Z,12
2017-11-05T08:07:07.220Z,12
2017-11-05T08:08:08.634Z,12
2017-11-05T08:09:10.052Z,8
2017-11-05T08:10:11.475Z,12
2017-11-05T08:11:12.887Z,12
2017-11-05T08:12:14.305Z,12
2017-11-05T08:13:15.722Z,8
2017-11-05T08:14:17.141Z,4
2017-11-05T08:15:18.559Z,4
2017-11-05T08:16:19.978Z,4
2017-11-05T08:17:21.394Z,8
2017-11-05T08:18:22.812Z,8
2017-11-05T08:19:24.251Z,8
2017-11-05T08:20:25.665Z,8
2017-11-05T08:21:27.080Z,8
2017-11-05T08:22:28.501Z,4
2017-11-05T08:23:29.921Z,4
2017-11-05T08:24:31.336Z,4
2017-11-05T08:25:32.753Z,8
2017-11-05T08:26:34.179Z,4
2017-11-05T08:27:35.600Z,8
2017-11-05T08:28:37.018Z,8
2017-11-05T08:29:38.438Z,8
2017-11-05T08:30:39.861Z,8
2017-11-05T08:31:41.276Z,8
2017-11-05T08:32:42.691Z,8
2017-11-05T08:33:44.119Z,12
2017-11-05T08:34:45.529Z,12
2017-11-05T08:35:46.947Z,16
2017-11-05T08:36:48.366Z,16
2017-11-05T08:37:49.785Z,16
2017-11-05T08:38:51.204Z,16
2017-11-05T08:39:52.623Z,20
2017-11-05T08:40:54.041Z,24
2017-11-05T08:41:55.460Z,20
2017-11-05T08:42:56.881Z,24
2017-11-05T08:43:58.302Z,24
2017-11-05T08:44:59.723Z,24
2017-11-05T08:46:01.148Z,20
2017-11-05T08:47:02.566Z,24
2017-11-05T08:48:04.043Z,24
2017-11-05T08:49:05.463Z,24
2017-11-05T08:50:06.882Z,28
2017-11-05T08:51:08.301Z,28
2017-11-05T08:52:09.721Z,32
2017-11-05T08:53:11.146Z,32
2017-11-05T08:54:12.565Z,32
2017-11-05T08:55:13.984Z,36
2017-11-05T08:56:15.401Z,36
2017-11-05T08:57:16.821Z,36
2017-11-05T08:58:18.238Z,36
2017-11-05T08:59:19.654Z,36
2017-11-05T09:00:21.074Z,36
2017-11-05T09:01:22.490Z,40
2017-11-05T09:02:23.926Z,44
2017-11-05T09:03:25.344Z,48
2017-11-05T09:04:26.758Z,48
2017-11-05T09:05:28.179Z,48
2017-11-05T09:06:29.601Z,48
2017-11-05T09:07:31.017Z,48
2017-11-05T09:08:32.448Z,44
2017-11-05T09:09:33.868Z,40
2017-11-05T09:10:35.286Z,40
2017-11-05T09:11:36.707Z,36
2017-11-05T09:12:38.127Z,40
2017-11-05T09:13:39.547Z,40
2017-11-05T09:14:40.964Z,40
2017-11-05T09:15:42.384Z,40
2017-11-05T09:16:43.803Z,44
2017-11-05T09:17:45.223Z,36
2017-11-05T09:18:46.647Z,32
2017-11-05T09:19:48.063Z,32
2017-11-05T09:20:49.483Z,32
2017-11-05T09:21:50.900Z,40
2017-11-05T09:22:52.326Z,44
2017-11-05T09:23:53.739Z,44
2017-11-05T09:24:55.159Z,40
2017-11-05T09:25:56.581Z,36
2017-11-05T09:26:58.008Z,32
2017-11-05T09:27:59.455Z,32
2017-11-05T09:29:00.874Z,32
2017-11-05T09:30:02.297Z,36
2017-11-05T09:31:03.723Z,40
2017-11-05T09:32:05.139Z,48
2017-11-05T09:33:06.558Z,56
2017-11-05T09:34:07.978Z,56
2017-11-05T09:35:09.400Z,60
2017-11-05T09:36:10.817Z,60
2017-11-05T09:37:12.235Z,64
2017-11-05T09:38:13.657Z,68
2017-11-05T09:39:15.163Z,64
2017-11-05T09:40:16.586Z,64
2017-11-05T09:41:18.003Z,68
2017-11-05T09:42:19.434Z,72
2017-11-05T09:43:20.852Z,76
2017-11-05T09:44:22.270Z,76
2017-11-05T09:45:23.698Z,76
2017-11-05T09:46:25.121Z,80
2017-11-05T09:47:26.538Z,80
2017-11-05T09:48:27.960Z,76
2017-11-05T09:49:29.382Z,72
2017-11-05T09:50:30.830Z,72
2017-11-05T09:51:32.228Z,68
2017-11-05T09:52:33.643Z,64
2017-11-05T09:53:35.073Z,60
2017-11-05T09:54:36.486Z,68
2017-11-05T09:55:37.910Z,64
2017-11-05T09:56:39.423Z,68
2017-11-05T09:57:40.836Z,64
2017-11-05T09:58:42.260Z,68
2017-11-05T09:59:43.722Z,56
2017-11-05T10:00:45.852Z,56
2017-11-05T10:01:47.274Z,48
2017-11-05T10:02:48.697Z,56
2017-11-05T10:03:50.118Z,68
2017-11-05T10:04:51.534Z,72
2017-11-05T10:05:52.974Z,76
2017-11-05T10:06:54.403Z,84
2017-11-05T10:07:55.818Z,84
2017-11-05T10:08:57.289Z,84
2017-11-05T10:09:58.707Z,80
2017-11-05T10:11:00.126Z,84
2017-11-05T10:12:01.543Z,80
2017-11-05T10:13:02.967Z,80
2017-11-05T10:14:04.383Z,80
2017-11-05T10:15:05.813Z,76
2017-11-05T10:16:07.223Z,72
2017-11-05T10:17:08.644Z,72
2017-11-05T10:18:10.066Z,72
2017-11-05T10:19:11.488Z,72
2017-11-05T10:20:12.907Z,72
2017-11-05T10:21:14.330Z,72
2017-11-05T10:22:15.765Z,72
2017-11-05T10:23:17.171Z,76
2017-11-05T10:24:18.586Z,80
2017-11-05T10:25:20.007Z,72
2017-11-05T10:26:21.429Z,68
2017-11-05T10:27:22.850Z,72
2017-11-05T10:28:24.271Z,68
2017-11-05T10:29:25.688Z,64
2017-11-05T10:30:27.109Z,64
2017-11-05T10:31:28.532Z,60
2017-11-05T10:32:29.954Z,60
2017-11-05T10:33:31.377Z,60
2017-11-05T10:34:32.794Z,52
2017-11-05T10:35:34.215Z,52
2017-11-05T10:36:35.634Z,56
2017-11-05T10:37:37.055Z,56
2017-11-05T10:38:38.477Z,56
2017-11-05T10:39:39.894Z,56
2017-11-05T10:40:41.314Z,60
2017-11-05T10:41:42.733Z,64
2017-11-05T10:42:44.156Z,64
2017-11-05T10:43:45.598Z,68
2017-11-05T10:44:46.998Z,68
2017-11-05T10:45:48.419Z,72
2017-11-05T10:46:49.839Z,80
2017-11-05T10:47:51.263Z,80
2017-11-05T10:48:52.682Z,80
2017-11-05T10:49:54.098Z,84
2017-11-05T10:50:55.524Z,84
2017-11-05T10:51:56.941Z,88
2017-11-05T10:52:58.363Z,88
2017-11-05T10:53:59.791Z,84
2017-11-05T10:55:01.214Z,88
2017-11-05T10:56:02.631Z,88
2017-11-05T10:57:04.049Z,84
2017-11-05T10:58:05.506Z,84
2017-11-05T10:59:06.927Z,84
2017-11-05T11:00:08.347Z,84
2017-11-05T11:01:09.779Z,88
2017-11-05T11:02:11.194Z,88
2017-11-05T11:03:12.609Z,92
2017-11-05T11:04:14.030Z,92
2017-11-05T11:05:15.507Z,96
2017-11-05T11:06:17.669Z,96
2017-11-05T11:07:19.084Z,92
2017-11-05T11:08:20.507Z,96
2017-11-05T11:09:21.927Z,92
2017-11-05T11:10:23.353Z,92
2017-11-05T11:11:24.814Z,92
2017-11-05T11:12:26.266Z,92
2017-11-05T11:13:27.685Z,92
2017-11-05T11:14:29.110Z,88
2017-11-05T11:15:30.531Z,88
2017-11-05T11:16:31.973Z,88
2017-11-05T11:17:33.392Z,92
2017-11-05T11:18:34.816Z,96
2017-11-05T11:19:36.233Z,96
2017-11-05T11:20:37.656Z,96
2017-11-05T11:21:39.080Z,96
2017-11-05T11:22:40.569Z,96
2017-11-05T11:23:41.994Z,96
2017-11-05T11:24:43.411Z,96
2017-11-05T11:25:44.824Z,100
2017-11-05T11:26:46.253Z,96
2017-11-05T11:27:47.671Z,96
2017-11-05T11:28:49.088Z,96
2017-11-05T11:29:50.509Z,96
2017-11-05T11:30:51.928Z,100
2017-11-05T11:31:53.364Z,100
2017-11-05T11:32:54.768Z,100
2017-11-05T11:33:56.216Z,100
2017-11-05T11:34:57.635Z,100
2017-11-05T11:35:59.056Z,100
2017-11-05T11:37:00.481Z,104
2017-11-05T11:38:01.894Z,104
2017-11-05T11:39:03.323Z,108
2017-11-05T11:40:04.735Z,104
2017-11-05T11:41:06.154Z,104
2017-11-05T11:42:07.571Z,104
2017-11-05T11:43:08.990Z,100
2017-11-05T11:44:10.411Z,100
2017-11-05T11:45:11.831Z,100
2017-11-05T11:46:13.251Z,100
2017-11-05T11:47:14.668Z,100
2017-11-05T11:48:16.086Z,100
2017-11-05T11:49:17.509Z,92
2017-11-05T11:50:18.926Z,88
2017-11-05T11:51:20.347Z,88
2017-11-05T11:52:21.764Z,96
2017-11-05T11:53:23.182Z,96
2017-11-05T11:54:24.595Z,88
2017-11-05T11:55:26.026Z,72
2017-11-05T11:56:27.447Z,64
2017-11-05T11:57:28.862Z,72
2017-11-05T11:58:30.280Z,80
2017-11-05T11:59:31.698Z,80
2017-11-05T12:00:33.117Z,76
2017-11-05T12:01:34.552Z,72
2017-11-05T12:02:35.953Z,68
2017-11-05T12:03:37.379Z,72
2017-11-05T12:04:38.794Z,80
2017-11-05T12:05:40.425Z,84
2017-11-05T12:06:41.844Z,80
2017-11-05T12:07:43.266Z,72
2017-11-05T12:08:44.689Z,68
2017-11-05T12:09:46.095Z,72
2017-11-05T12:10:47.515Z,84
2017-11-05T12:11:48.934Z,88
2017-11-05T12:12:50.347Z,84
2017-11-05T12:13:51.766Z,68
2017-11-05T12:14:53.186Z,64
2017-11-05T12:15:54.604Z,56
2017-11-05T12:16:56.016Z,68
2017-11-05T12:17:57.444Z,56
2017-11-05T12:18:58.864Z,88
2017-11-05T12:20:00.283Z,80
2017-11-05T12:21:01.701Z,88
2017-11-05T12:22:03.121Z,84
2017-11-05T12:23:04.544Z,72
2017-11-05T12:24:05.954Z,52
2017-11-05T12:25:07.372Z,52
2017-11-05T12:26:08.795Z,60
2017-11-05T12:27:10.212Z,60
2017-11-05T12:28:11.629Z,60
2017-11-05T12:29:13.048Z,68
2017-11-05T12:30:14.467Z,68
2017-11-05T12:31:15.886Z,76
2017-11-05T12:32:17.302Z,68
2017-11-05T12:33:18.740Z,64
2017-11-05T12:34:20.161Z,88
2017-11-05T12:35:21.591Z,88
2017-11-05T12:36:23.007Z,72
2017-11-05T12:37:24.477Z,56
2017-11-05T12:38:25.896Z,60
2017-11-05T12:39:27.314Z,80
2017-11-05T12:40:28.730Z,76
2017-11-05T12:41:30.153Z,64
2017-11-05T12:42:31.571Z,60
2017-11-05T12:43:32.992Z,52
2017-11-05T12:44:34.407Z,52
2017-11-05T12:45:35.857Z,44
2017-11-05T12:46:37.259Z,44
2017-11-05T12:47:38.684Z,40
2017-11-05T12:48:40.104Z,44
2017-11-05T12:49:41.523Z,48
2017-11-05T12:50:42.948Z,48
2017-11-05T12:51:44.363Z,52
2017-11-05T12:52:45.783Z,56
2017-11-05T12:53:47.204Z,72
2017-11-05T12:54:48.623Z,80
2017-11-05T12:55:50.044Z,84
2017-11-05T12:56:51.459Z,84
2017-11-05T12:57:52.879Z,80
2017-11-05T12:58:54.298Z,88
2017-11-05T12:59:55.746Z,92
2017-11-05T13:00:57.168Z,112
2017-11-05T13:01:58.595Z,116
2017-11-05T13:03:00.017Z,112
2017-11-05T13:04:01.435Z,92
2017-11-05T13:05:02.854Z,92
2017-11-05T13:06:04.273Z,96
2017-11-05T13:07:05.696Z,92
2017-11-05T13:08:07.116Z,96
2017-11-05T13:09:08.538Z,100
2017-11-05T13:10:09.963Z,100
2017-11-05T13:11:11.386Z,104
2017-11-05T13:12:12.808Z,104
2017-11-05T13:13:14.236Z,104
2017-11-05T13:14:15.652Z,96
2017-11-05T13:15:17.109Z,100
2017-11-05T13:16:18.528Z,100
2017-11-05T13:17:19.950Z,104
2017-11-05T13:18:21.370Z,104
2017-11-05T13:19:22.790Z,104
2017-11-05T13:20:24.216Z,100
2017-11-05T13:21:25.639Z,112
2017-11-05T13:22:27.057Z,100
2017-11-05T13:23:28.480Z,92
2017-11-05T13:24:29.901Z,96
2017-11-05T13:25:31.362Z,88
2017-11-05T13:26:32.784Z,80
2017-11-05T13:27:34.202Z,68
2017-11-05T13:28:35.624Z,64
2017-11-05T13:29:37.039Z,64
2017-11-05T13:30:38.464Z,60
2017-11-05T13:31:39.886Z,56
2017-11-05T13:32:41.310Z,56
2017-11-05T13:33:42.751Z,56
2017-11-05T13:34:44.148Z,56
2017-11-05T13:35:45.577Z,60
2017-11-05T13:36:46.994Z,64
2017-11-05T13:37:48.410Z,68
2017-11-05T13:38:49.833Z,72
2017-11-05T13:39:51.250Z,80
2017-11-05T13:40:52.675Z,84
2017-11-05T13:41:54.105Z,84
2017-11-05T13:42:55.527Z,88
2017-11-05T13:43:56.944Z,92
2017-11-05T13:44:58.370Z,96
2017-11-05T13:45:59.788Z,96
2017-11-05T13:47:01.209Z,88
2017-11-05T13:48:02.629Z,88
2017-11-05T13:49:04.050Z,88
2017-11-05T13:50:05.474Z,92
2017-11-05T13:51:06.895Z,92
2017-11-05T13:52:08.314Z,92
2017-11-05T13:53:09.737Z,76
2017-11-05T13:54:11.158Z,72
2017-11-05T13:55:12.581Z,64
2017-11-05T13:56:13.999Z,56
2017-11-05T13:57:15.420Z,48
2017-11-05T13:58:16.839Z,40
2017-11-05T13:59:18.259Z,44
2017-11-05T14:00:19.680Z,40
2017-11-05T14:01:21.093Z,32
2017-11-05T14:02:22.519Z,28
2017-11-05T14:03:23.941Z,20
2017-11-05T14:04:25.360Z,16
2017-11-05T14:05:26.786Z,20
2017-11-05T14:06:28.207Z,16
2017-11-05T14:07:29.630Z,16
2017-11-05T14:08:31.052Z,12
2017-11-05T14:09:32.471Z,16
2017-11-05T14:10:33.890Z,16
2017-11-05T14:11:35.308Z,16
2017-11-05T14:12:36.725Z,16
2017-11-05T14:13:38.151Z,16
2017-11-05T14:14:39.566Z,12
2017-11-05T14:15:40.986Z,12
2017-11-05T14:16:42.413Z,12
2017-11-05T14:17:43.823Z,12
2017-11-05T14:18:45.252Z,12
2017-11-05T14:19:46.671Z,12
2017-11-05T14:20:48.093Z,16
2017-11-05T14:21:49.512Z,12
2017-11-05T14:22:50.931Z,16
2017-11-05T14:23:52.351Z,16
2017-11-05T14:24:53.769Z,12
2017-11-05T14:25:55.191Z,12
2017-11-05T14:26:56.610Z,16
2017-11-05T14:27:58.040Z,16
2017-11-05T14:28:59.458Z,16
2017-11-05T14:30:00.881Z,16
2017-11-05T14:31:02.304Z,16
2017-11-05T14:32:03.726Z,16
2017-11-05T14:33:05.148Z,16
2017-11-05T14:34:06.570Z,16
2017-11-05T14:35:07.990Z,16
2017-11-05T14:36:09.406Z,16
2017-11-05T14:37:10.826Z,16
2017-11-05T14:38:12.247Z,16
2017-11-05T14:39:13.666Z,16
2017-11-05T14:40:15.088Z,20
2017-11-05T14:41:16.505Z,20
2017-11-05T14:42:17.925Z,24
2017-11-05T14:43:19.346Z,20
2017-11-05T14:44:20.769Z,24
2017-11-05T14:45:22.188Z,24
2017-11-05T14:46:23.608Z,24
2017-11-05T14:47:25.028Z,24
2017-11-05T14:48:26.452Z,24
2017-11-05T14:49:27.881Z,24
2017-11-05T14:50:29.296Z,24
2017-11-05T14:51:30.719Z,24
2017-11-05T14:52:32.144Z,24